Time;durP1;ratioP1;P1;durP2;ratioP2;P2;SDS_P1;SDS_P2;PMS_P1;PMS_P2;Temp;Humidity;BMP_temperature;BMP_pressure;BME280_temperature;BME280_humidity;BME280_pressure;Samples;Min_cycle;Max_cycle;Signal;HPM_P1;HPM_P2
2023/08/02 00:02:55;;;;;;;11.40;5.40;;;;;;;;;;6262665;28;20186;-68
2023/08/02 00:05:58;;;;;;;5.27;4.77;;;;;;;;;;6266925;28;20186;-68
2023/08/02 00:08:59;;;;;;;7.43;5.40;;;;;;;;;;6255134;28;20194;-68
2023/08/02 00:12:00;;;;;;;6.00;5.40;;;;;;;;;;6240600;28;20190;-68
2023/08/02 00:15:01;;;;;;;8.73;5.30;;;;;;;;;;6256191;28;20260;-69
2023/08/02 00:18:02;;;;;;;6.40;5.50;;;;;;;;;;6246519;28;20680;-69
2023/08/02 00:21:03;;;;;;;8.77;4.93;;;;;;;;;;6252935;28;20197;-68
2023/08/02 00:24:04;;;;;;;8.23;4.83;;;;;;;;;;6242280;28;20281;-68
2023/08/02 00:27:05;;;;;;;4.63;4.17;;;;;;;;;;6282714;28;20200;-68
2023/08/02 00:30:07;;;;;;;9.33;5.63;;;;;;;;;;6255620;28;20245;-68
2023/08/02 00:33:08;;;;;;;8.57;4.90;;;;;;;;;;6255226;28;20205;-69
2023/08/02 00:36:09;;;;;;;4.47;4.00;;;;;;;;;;6255240;28;20213;-67
2023/08/02 00:39:10;;;;;;;4.57;3.80;;;;;;;;;;6256697;28;20198;-68
2023/08/02 00:42:11;;;;;;;6.33;4.30;;;;;;;;;;6250969;28;20191;-69
2023/08/02 00:45:12;;;;;;;4.60;4.13;;;;;;;;;;6256361;28;20618;-67
2023/08/02 00:48:13;;;;;;;9.30;4.47;;;;;;;;;;6254345;28;20198;-68
2023/08/02 00:51:17;;;;;;;6.63;4.10;;;;;;;;;;6253706;28;20253;-68
2023/08/02 00:54:19;;;;;;;5.37;3.50;;;;;;;;;;6265856;28;20219;-68
2023/08/02 00:57:20;;;;;;;5.37;4.50;;;;;;;;;;6256765;28;20293;-68
2023/08/02 01:00:21;;;;;;;6.43;4.20;;;;;;;;;;6273786;28;20183;-67
2023/08/02 01:03:22;;;;;;;4.60;4.00;;;;;;;;;;6262166;28;20396;-68
2023/08/02 01:06:29;;;;;;;4.17;3.00;;;;;;;;;;6236212;28;20198;-67
2023/08/02 01:09:34;;;;;;;5.83;3.60;;;;;;;;;;6262374;28;20195;-67
2023/08/02 01:12:36;;;;;;;5.90;4.33;;;;;;;;;;6254510;28;20198;-68
2023/08/02 01:15:37;;;;;;;6.43;4.70;;;;;;;;;;6257902;28;20188;-68
2023/08/02 01:18:39;;;;;;;4.60;4.20;;;;;;;;;;6264487;28;20183;-68
2023/08/02 01:21:40;;;;;;;4.60;3.40;;;;;;;;;;6253441;28;20277;-68
2023/08/02 01:24:41;;;;;;;5.43;4.50;;;;;;;;;;6258469;28;20194;-68
2023/08/02 01:27:49;;;;;;;6.50;5.20;;;;;;;;;;6253692;28;20195;-68
2023/08/02 01:30:52;;;;;;;6.17;4.57;;;;;;;;;;6260760;28;20237;-67
2023/08/02 01:33:54;;;;;;;5.73;4.30;;;;;;;;;;6260605;28;20246;-67
2023/08/02 01:36:55;;;;;;;5.77;5.10;;;;;;;;;;6249238;28;20346;-68
2023/08/02 01:39:56;;;;;;;4.90;4.03;;;;;;;;;;6283532;28;20197;-67
2023/08/02 01:42:58;;;;;;;5.20;4.27;;;;;;;;;;6249118;28;20215;-68
2023/08/02 01:45:59;;;;;;;7.77;5.47;;;;;;;;;;6252118;28;20195;-68
2023/08/02 01:49:00;;;;;;;11.10;5.57;;;;;;;;;;6256025;28;20213;-68
2023/08/02 01:52:01;;;;;;;7.60;5.47;;;;;;;;;;6249679;28;20194;-68
2023/08/02 01:55:02;;;;;;;7.60;5.27;;;;;;;;;;6260098;28;20320;-68
2023/08/02 01:58:03;;;;;;;6.50;5.37;;;;;;;;;;6252190;28;20221;-68
2023/08/02 02:01:04;;;;;;;6.63;4.60;;;;;;;;;;6252496;28;20236;-68
2023/08/02 02:04:05;;;;;;;3.80;3.50;;;;;;;;;;6256806;28;20216;-68
2023/08/02 02:07:06;;;;;;;4.40;3.33;;;;;;;;;;6283241;28;20203;-67
2023/08/02 02:10:07;;;;;;;4.07;3.30;;;;;;;;;;6249067;28;20227;-68
2023/08/02 02:13:08;;;;;;;3.33;3.07;;;;;;;;;;6253006;28;20195;-68
2023/08/02 02:16:09;;;;;;;7.47;3.63;;;;;;;;;;6252404;28;20210;-68
2023/08/02 02:19:10;;;;;;;3.13;2.83;;;;;;;;;;6286490;28;20200;-68
2023/08/02 02:22:12;;;;;;;4.17;3.53;;;;;;;;;;6267704;28;20186;-68
2023/08/02 02:25:13;;;;;;;9.53;3.70;;;;;;;;;;6266973;28;20251;-68
2023/08/02 02:28:14;;;;;;;6.23;3.13;;;;;;;;;;6242024;28;20201;-68
2023/08/02 02:31:15;;;;;;;6.83;3.30;;;;;;;;;;6243220;28;20241;-68
2023/08/02 02:34:17;;;;;;;3.30;3.00;;;;;;;;;;6242278;28;20194;-68
2023/08/02 02:37:18;;;;;;;4.23;2.80;;;;;;;;;;6247115;28;20266;-67
2023/08/02 02:40:19;;;;;;;3.93;3.40;;;;;;;;;;6273327;28;20185;-67
2023/08/02 02:43:20;;;;;;;3.20;2.77;;;;;;;;;;6263468;28;20313;-67
2023/08/02 02:46:21;;;;;;;5.07;3.40;;;;;;;;;;6246614;28;20277;-68
2023/08/02 02:49:22;;;;;;;6.27;3.43;;;;;;;;;;6263479;28;20194;-68
2023/08/02 02:52:24;;;;;;;4.90;3.97;;;;;;;;;;6278113;28;20333;-68
2023/08/02 02:55:25;;;;;;;4.10;3.10;;;;;;;;;;6270899;28;20245;-69
2023/08/02 02:58:26;;;;;;;3.30;2.93;;;;;;;;;;6247124;28;20242;-68
2023/08/02 03:01:27;;;;;;;4.30;3.40;;;;;;;;;;6251919;28;20185;-68
2023/08/02 03:04:28;;;;;;;4.17;3.13;;;;;;;;;;6252580;28;20193;-68
2023/08/02 03:07:29;;;;;;;3.67;3.23;;;;;;;;;;6250866;28;20187;-68
2023/08/02 03:10:30;;;;;;;6.60;3.13;;;;;;;;;;6254704;28;20248;-68
2023/08/02 03:13:31;;;;;;;5.80;3.10;;;;;;;;;;6253928;28;20217;-68
2023/08/02 03:16:32;;;;;;;3.37;3.07;;;;;;;;;;6253973;28;20224;-68
2023/08/02 03:19:33;;;;;;;4.67;3.37;;;;;;;;;;6247575;28;20190;-68
2023/08/02 03:22:34;;;;;;;4.57;3.23;;;;;;;;;;6248457;28;20198;-68
2023/08/02 03:25:36;;;;;;;3.97;3.50;;;;;;;;;;6248844;28;20218;-68
2023/08/02 03:28:37;;;;;;;11.10;7.57;;;;;;;;;;6257558;28;20201;-68
2023/08/02 03:31:38;;;;;;;13.30;8.33;;;;;;;;;;6261608;28;20266;-68
2023/08/02 03:34:39;;;;;;;14.63;8.97;;;;;;;;;;6264946;28;20190;-68
2023/08/02 03:37:40;;;;;;;13.47;8.53;;;;;;;;;;6271929;28;20242;-67
2023/08/02 03:40:41;;;;;;;10.37;7.07;;;;;;;;;;6263060;28;20199;-67
2023/08/02 03:43:42;;;;;;;20.03;12.27;;;;;;;;;;6235826;28;20221;-67
2023/08/02 03:46:43;;;;;;;13.43;9.43;;;;;;;;;;6244341;28;20221;-67
2023/08/02 03:49:44;;;;;;;14.60;8.97;;;;;;;;;;6250397;28;20243;-67
2023/08/02 03:52:45;;;;;;;12.10;8.47;;;;;;;;;;6269819;28;20195;-68
2023/08/02 03:55:46;;;;;;;16.13;10.17;;;;;;;;;;6271946;28;20203;-67
2023/08/02 03:58:47;;;;;;;18.87;11.80;;;;;;;;;;6262786;28;20332;-68
2023/08/02 04:01:48;;;;;;;26.70;14.80;;;;;;;;;;6243684;28;20258;-68
2023/08/02 04:04:49;;;;;;;23.53;13.87;;;;;;;;;;6244984;28;20197;-68
2023/08/02 04:07:50;;;;;;;20.23;11.30;;;;;;;;;;6246543;28;20190;-68
2023/08/02 04:10:52;;;;;;;11.70;7.00;;;;;;;;;;6243691;28;20196;-68
2023/08/02 04:13:53;;;;;;;8.07;5.50;;;;;;;;;;6249531;28;20187;-68
2023/08/02 04:16:54;;;;;;;5.83;5.10;;;;;;;;;;6250604;28;20218;-68
2023/08/02 04:19:55;;;;;;;5.23;4.73;;;;;;;;;;6245495;28;20205;-68
2023/08/02 04:22:56;;;;;;;5.33;4.87;;;;;;;;;;6267402;28;20194;-68
2023/08/02 04:25:57;;;;;;;7.53;4.57;;;;;;;;;;6241497;28;20202;-68
2023/08/02 04:28:58;;;;;;;6.60;5.27;;;;;;;;;;6263122;28;20203;-67
2023/08/02 04:31:59;;;;;;;5.10;4.60;;;;;;;;;;6254733;28;20298;-67
2023/08/02 04:35:00;;;;;;;5.10;4.60;;;;;;;;;;6253931;28;20197;-66
2023/08/02 04:38:01;;;;;;;7.57;5.17;;;;;;;;;;6255690;28;20232;-66
2023/08/02 04:41:03;;;;;;;5.33;4.30;;;;;;;;;;6250715;28;20187;-66
2023/08/02 04:44:05;;;;;;;7.70;4.80;;;;;;;;;;6248767;28;20199;-66
2023/08/02 04:47:06;;;;;;;4.80;4.30;;;;;;;;;;6259197;28;20193;-67
2023/08/02 04:50:07;;;;;;;5.03;4.47;;;;;;;;;;6248094;28;20201;-67
2023/08/02 04:53:08;;;;;;;6.90;4.60;;;;;;;;;;6244674;28;20230;-67
2023/08/02 04:56:09;;;;;;;5.13;4.23;;;;;;;;;;6247758;28;20251;-67
2023/08/02 04:59:10;;;;;;;3.83;3.53;;;;;;;;;;6266105;28;20203;-67
2023/08/02 05:02:11;;;;;;;4.97;3.17;;;;;;;;;;6249232;28;20191;-67
2023/08/02 05:05:12;;;;;;;4.77;3.47;;;;;;;;;;6240059;28;20194;-67
2023/08/02 05:08:14;;;;;;;3.67;3.03;;;;;;;;;;6247542;28;20198;-67
2023/08/02 05:11:15;;;;;;;6.53;3.60;;;;;;;;;;6242343;28;20210;-68
2023/08/02 05:14:16;;;;;;;3.60;3.30;;;;;;;;;;6270599;28;20190;-67
2023/08/02 05:17:17;;;;;;;4.63;3.53;;;;;;;;;;6255237;28;20290;-67
2023/08/02 05:20:18;;;;;;;3.67;3.20;;;;;;;;;;6275532;28;20197;-67
2023/08/02 05:23:19;;;;;;;3.47;3.17;;;;;;;;;;6254797;28;20313;-67
2023/08/02 05:26:20;;;;;;;5.67;3.17;;;;;;;;;;6248232;28;20201;-68
2023/08/02 05:29:21;;;;;;;4.90;3.80;;;;;;;;;;6251065;28;20190;-67
2023/08/02 05:32:22;;;;;;;6.33;3.20;;;;;;;;;;6248120;28;20242;-67
2023/08/02 05:35:25;;;;;;;4.60;3.57;;;;;;;;;;6251201;28;20194;-67
2023/08/02 05:38:26;;;;;;;4.00;3.33;;;;;;;;;;6263114;28;20210;-67
2023/08/02 05:41:27;;;;;;;4.17;3.40;;;;;;;;;;6246633;28;20196;-67
2023/08/02 05:44:28;;;;;;;5.73;3.40;;;;;;;;;;6242617;28;20273;-67
2023/08/02 05:47:30;;;;;;;4.03;3.40;;;;;;;;;;6251206;28;20281;-68
2023/08/02 05:50:32;;;;;;;3.53;3.23;;;;;;;;;;6267403;28;20190;-67
2023/08/02 05:53:33;;;;;;;4.00;3.10;;;;;;;;;;6253478;28;20182;-67
2023/08/02 05:56:34;;;;;;;5.37;3.47;;;;;;;;;;6254436;28;20227;-67
2023/08/02 05:59:37;;;;;;;3.53;3.13;;;;;;;;;;6254566;28;20200;-68
2023/08/02 06:02:38;;;;;;;3.57;3.27;;;;;;;;;;6245002;28;20190;-68
2023/08/02 06:05:39;;;;;;;3.70;3.40;;;;;;;;;;6276242;28;20189;-68
2023/08/02 06:08:41;;;;;;;3.50;3.20;;;;;;;;;;6248519;28;20295;-67
2023/08/02 06:11:42;;;;;;;4.63;3.40;;;;;;;;;;6247492;28;20209;-67
2023/08/02 06:14:43;;;;;;;3.27;2.70;;;;;;;;;;6245786;28;20189;-67
2023/08/02 06:17:44;;;;;;;4.50;3.50;;;;;;;;;;6251720;28;20309;-67
2023/08/02 06:20:45;;;;;;;3.83;3.03;;;;;;;;;;6247836;28;20193;-67
2023/08/02 06:23:46;;;;;;;3.00;2.80;;;;;;;;;;6253711;28;20189;-67
2023/08/02 06:26:48;;;;;;;3.43;3.13;;;;;;;;;;6249976;28;20193;-67
2023/08/02 06:29:49;;;;;;;3.70;3.00;;;;;;;;;;6258067;28;20236;-67
2023/08/02 06:32:50;;;;;;;3.40;3.03;;;;;;;;;;6268637;28;20256;-67
2023/08/02 06:35:51;;;;;;;4.23;3.27;;;;;;;;;;6238855;28;20194;-67
2023/08/02 06:38:52;;;;;;;2.97;2.77;;;;;;;;;;6262600;28;20189;-67
2023/08/02 06:41:53;;;;;;;4.40;3.40;;;;;;;;;;6248531;28;20277;-67
2023/08/02 06:44:54;;;;;;;3.40;3.20;;;;;;;;;;6252099;28;20185;-67
2023/08/02 06:47:55;;;;;;;3.33;3.03;;;;;;;;;;6274500;28;20198;-67
2023/08/02 06:50:56;;;;;;;4.53;3.00;;;;;;;;;;6233995;28;20190;-67
2023/08/02 06:53:57;;;;;;;3.47;2.83;;;;;;;;;;6244838;28;20198;-68
2023/08/02 06:56:58;;;;;;;6.93;3.63;;;;;;;;;;6249465;28;20224;-67
2023/08/02 07:00:00;;;;;;;3.50;3.20;;;;;;;;;;6233896;28;20239;-67
2023/08/02 07:03:01;;;;;;;7.63;3.47;;;;;;;;;;6244436;28;20283;-67
2023/08/02 07:06:07;;;;;;;5.00;3.30;;;;;;;;;;6257177;28;20195;-67
2023/08/02 07:09:08;;;;;;;4.33;3.57;;;;;;;;;;6262754;28;20228;-67
2023/08/02 07:12:09;;;;;;;5.17;2.80;;;;;;;;;;6247564;28;20190;-68
2023/08/02 07:15:10;;;;;;;4.10;2.90;;;;;;;;;;6252757;28;20194;-67
2023/08/02 07:18:12;;;;;;;3.70;3.20;;;;;;;;;;6249962;28;20214;-67
2023/08/02 07:21:13;;;;;;;3.67;3.07;;;;;;;;;;6250825;28;20190;-67
2023/08/02 07:24:14;;;;;;;4.87;3.60;;;;;;;;;;6245564;28;20201;-67
2023/08/02 07:27:15;;;;;;;4.03;3.30;;;;;;;;;;6245727;28;20203;-67
2023/08/02 07:30:16;;;;;;;4.70;3.50;;;;;;;;;;6243825;28;20291;-67
2023/08/02 07:33:17;;;;;;;3.80;3.50;;;;;;;;;;6253890;28;20239;-67
2023/08/02 07:36:18;;;;;;;6.07;5.43;;;;;;;;;;6254318;28;20216;-67
2023/08/02 07:39:19;;;;;;;6.47;5.03;;;;;;;;;;6251436;28;20187;-67
2023/08/02 07:42:20;;;;;;;8.37;7.43;;;;;;;;;;6240877;28;20332;-67
2023/08/02 07:45:21;;;;;;;8.27;7.47;;;;;;;;;;6271927;28;20200;-67
2023/08/02 07:48:22;;;;;;;8.43;7.47;;;;;;;;;;6246801;28;20226;-67
2023/08/02 07:51:24;;;;;;;8.47;7.47;;;;;;;;;;6254909;28;20205;-67
2023/08/02 07:54:25;;;;;;;7.93;6.23;;;;;;;;;;6241527;28;20202;-67
2023/08/02 07:57:27;;;;;;;8.13;6.90;;;;;;;;;;6253621;28;20260;-67
2023/08/02 08:00:28;;;;;;;7.57;6.50;;;;;;;;;;6256221;28;20218;-67
2023/08/02 08:03:29;;;;;;;7.30;6.60;;;;;;;;;;6244606;28;20270;-67
2023/08/02 08:06:30;;;;;;;10.07;8.00;;;;;;;;;;6249712;28;20212;-67
2023/08/02 08:09:31;;;;;;;8.83;8.03;;;;;;;;;;6246418;28;20194;-67
2023/08/02 08:12:32;;;;;;;8.40;7.53;;;;;;;;;;6270549;28;20216;-67
2023/08/02 08:15:33;;;;;;;8.63;7.73;;;;;;;;;;6245944;28;20201;-67
2023/08/02 08:18:35;;;;;;;7.27;6.57;;;;;;;;;;6280498;28;20220;-67
2023/08/02 08:21:36;;;;;;;6.63;5.93;;;;;;;;;;6253017;28;20190;-67
2023/08/02 08:24:37;;;;;;;7.33;6.73;;;;;;;;;;6265766;28;20285;-67
2023/08/02 08:27:38;;;;;;;7.27;6.57;;;;;;;;;;6261467;28;20226;-67
2023/08/02 08:30:39;;;;;;;7.67;6.40;;;;;;;;;;6252312;28;20248;-67
2023/08/02 08:33:40;;;;;;;7.20;6.20;;;;;;;;;;6254050;28;20196;-67
2023/08/02 08:36:42;;;;;;;6.20;5.63;;;;;;;;;;6245013;28;20220;-67
2023/08/02 08:39:43;;;;;;;6.97;6.10;;;;;;;;;;6252344;28;20233;-67
2023/08/02 08:42:48;;;;;;;6.50;5.87;;;;;;;;;;6251700;28;20285;-67
2023/08/02 08:45:50;;;;;;;6.30;5.77;;;;;;;;;;6236766;28;20196;-68
2023/08/02 08:48:51;;;;;;;5.53;5.03;;;;;;;;;;6261063;28;20518;-67
2023/08/02 08:51:53;;;;;;;9.07;5.10;;;;;;;;;;6248266;28;20186;-67
2023/08/02 08:54:54;;;;;;;5.63;5.00;;;;;;;;;;6255897;28;20195;-67
2023/08/02 08:57:55;;;;;;;5.17;4.77;;;;;;;;;;6240486;28;20222;-68
2023/08/02 09:00:58;;;;;;;6.20;5.60;;;;;;;;;;6275286;28;20191;-69
2023/08/02 09:03:59;;;;;;;5.77;5.03;;;;;;;;;;6251063;28;20191;-70
2023/08/02 09:07:00;;;;;;;5.70;5.20;;;;;;;;;;6258290;28;20211;-70
2023/08/02 09:10:01;;;;;;;5.17;4.67;;;;;;;;;;6245800;28;20193;-70
2023/08/02 09:13:02;;;;;;;4.93;4.40;;;;;;;;;;6264754;28;20231;-70
2023/08/02 09:16:03;;;;;;;4.97;4.37;;;;;;;;;;6253472;28;20191;-70
2023/08/02 09:19:04;;;;;;;4.37;3.97;;;;;;;;;;6266740;28;20268;-70
2023/08/02 09:22:13;;;;;;;5.47;4.23;;;;;;;;;;6257496;28;20193;-70
2023/08/02 09:25:25;;;;;;;5.97;4.30;;;;;;;;;;6265777;28;20198;-70
2023/08/02 09:28:26;;;;;;;3.50;3.20;;;;;;;;;;6240440;28;20210;-70
2023/08/02 09:31:28;;;;;;;3.87;3.50;;;;;;;;;;6249559;28;20241;-70
2023/08/02 09:34:41;;;;;;;3.87;3.17;;;;;;;;;;6260020;28;20189;-69
2023/08/02 09:37:42;;;;;;;2.97;1.93;;;;;;;;;;6265672;28;20302;-69
2023/08/02 09:40:47;;;;;;;2.13;2.03;;;;;;;;;;6233596;28;20190;-70
2023/08/02 09:43:48;;;;;;;2.50;2.30;;;;;;;;;;6253535;28;20218;-70
2023/08/02 09:46:49;;;;;;;2.63;2.43;;;;;;;;;;6266474;28;20202;-70
2023/08/02 09:50:04;;;;;;;2.90;2.70;;;;;;;;;;6255899;28;20197;-70
2023/08/02 09:53:15;;;;;;;3.27;2.70;;;;;;;;;;6255959;28;20191;-70
2023/08/02 09:56:16;;;;;;;2.47;2.27;;;;;;;;;;6249670;28;20288;-70
2023/08/02 09:59:18;;;;;;;2.50;2.30;;;;;;;;;;6287481;28;20186;-70
2023/08/02 10:02:23;;;;;;;2.53;2.33;;;;;;;;;;6241198;28;20195;-70
2023/08/02 10:05:24;;;;;;;2.87;2.67;;;;;;;;;;6250701;28;20186;-69
2023/08/02 10:08:28;;;;;;;2.80;2.57;;;;;;;;;;6256909;28;20197;-69
2023/08/02 10:11:30;;;;;;;2.80;2.60;;;;;;;;;;6259665;28;20201;-70
2023/08/02 10:14:31;;;;;;;2.70;2.47;;;;;;;;;;6251697;28;20182;-69
2023/08/02 10:17:33;;;;;;;2.70;2.50;;;;;;;;;;6264244;28;20250;-70
2023/08/02 10:20:34;;;;;;;2.53;2.33;;;;;;;;;;6263937;28;20268;-69
2023/08/02 10:23:35;;;;;;;3.47;2.83;;;;;;;;;;6251509;28;20186;-69
2023/08/02 10:26:37;;;;;;;3.67;2.73;;;;;;;;;;6269526;28;20186;-69
2023/08/02 10:29:38;;;;;;;2.70;2.50;;;;;;;;;;6251575;28;20240;-70
2023/08/02 10:32:39;;;;;;;3.13;2.80;;;;;;;;;;6260789;28;20276;-70
2023/08/02 10:35:59;;;;;;;3.03;2.53;;;;;;;;;;6267198;28;20208;-70
2023/08/02 10:39:00;;;;;;;2.90;2.70;;;;;;;;;;6260821;28;21172;-70
2023/08/02 10:42:01;;;;;;;3.73;3.30;;;;;;;;;;6266824;28;20228;-70
2023/08/02 10:45:02;;;;;;;3.53;3.23;;;;;;;;;;6270514;28;20327;-70
2023/08/02 10:48:23;;;;;;;3.60;3.30;;;;;;;;;;6257929;28;20184;-70
2023/08/02 10:51:27;;;;;;;3.57;3.27;;;;;;;;;;6284976;28;20187;-70
2023/08/02 10:54:28;;;;;;;3.47;3.20;;;;;;;;;;6257427;28;20186;-70
2023/08/02 10:57:29;;;;;;;2.93;2.73;;;;;;;;;;6249329;28;20224;-70
2023/08/02 11:00:30;;;;;;;3.33;3.03;;;;;;;;;;6249127;28;20189;-69
2023/08/02 11:03:31;;;;;;;2.47;2.27;;;;;;;;;;6247774;28;20188;-70
2023/08/02 11:06:33;;;;;;;2.10;2.00;;;;;;;;;;6243378;28;20218;-70
2023/08/02 11:09:34;;;;;;;2.97;2.20;;;;;;;;;;6254941;28;20197;-70
2023/08/02 11:12:35;;;;;;;4.00;2.17;;;;;;;;;;6246486;28;20194;-70
2023/08/02 11:15:36;;;;;;;3.03;2.67;;;;;;;;;;6246766;28;20204;-70
2023/08/02 11:18:37;;;;;;;2.50;2.30;;;;;;;;;;6249745;28;20264;-70
2023/08/02 11:21:38;;;;;;;2.20;2.00;;;;;;;;;;6256651;28;20244;-70
2023/08/02 11:24:43;;;;;;;5.97;2.53;;;;;;;;;;6248009;28;20206;-70
2023/08/02 11:27:44;;;;;;;2.40;2.20;;;;;;;;;;6248787;28;20186;-70
2023/08/02 11:30:50;;;;;;;2.23;2.03;;;;;;;;;;6248682;28;20252;-70
2023/08/02 11:33:51;;;;;;;3.37;1.80;;;;;;;;;;6260641;28;20201;-70
2023/08/02 11:36:52;;;;;;;2.00;1.80;;;;;;;;;;6259118;28;20317;-70
2023/08/02 11:39:54;;;;;;;1.90;1.80;;;;;;;;;;6242845;28;20237;-70
2023/08/02 11:42:55;;;;;;;3.50;2.43;;;;;;;;;;6260569;28;20193;-70
2023/08/02 11:45:57;;;;;;;2.40;2.20;;;;;;;;;;6265331;28;20194;-70
2023/08/02 11:49:07;;;;;;;2.53;2.33;;;;;;;;;;6244901;28;20197;-70
2023/08/02 11:52:09;;;;;;;2.30;2.10;;;;;;;;;;6262122;28;20187;-68
2023/08/02 11:55:12;;;;;;;2.50;2.30;;;;;;;;;;6249474;28;20218;-70
2023/08/02 11:58:13;;;;;;;2.90;2.30;;;;;;;;;;6258401;28;20210;-70
2023/08/02 12:01:14;;;;;;;2.50;2.30;;;;;;;;;;6255527;28;20197;-70
2023/08/02 12:04:15;;;;;;;4.83;1.90;;;;;;;;;;6268004;28;20202;-70
2023/08/02 12:07:29;;;;;;;2.40;2.20;;;;;;;;;;6244247;28;20241;-70
2023/08/02 12:10:30;;;;;;;2.10;2.00;;;;;;;;;;6241559;28;20194;-69
2023/08/02 12:13:31;;;;;;;2.83;2.40;;;;;;;;;;6247320;28;20193;-69
2023/08/02 12:16:43;;;;;;;3.03;2.20;;;;;;;;;;6253302;28;20274;-69
2023/08/02 12:19:44;;;;;;;2.27;2.07;;;;;;;;;;6249586;28;20225;-70
2023/08/02 12:22:48;;;;;;;2.27;2.07;;;;;;;;;;6261210;28;20239;-70
2023/08/02 12:25:50;;;;;;;2.70;1.73;;;;;;;;;;6255468;28;20198;-70
2023/08/02 12:28:51;;;;;;;2.70;1.70;;;;;;;;;;6267956;28;20205;-70
2023/08/02 12:31:55;;;;;;;4.30;1.80;;;;;;;;;;6282142;28;20251;-70
2023/08/02 12:34:56;;;;;;;1.90;1.77;;;;;;;;;;6266650;28;20196;-69
2023/08/02 12:37:57;;;;;;;2.33;1.80;;;;;;;;;;6250629;28;20218;-70
2023/08/02 12:40:59;;;;;;;2.73;1.90;;;;;;;;;;6246939;28;20225;-70
2023/08/02 12:44:00;;;;;;;4.20;2.00;;;;;;;;;;6252796;28;20218;-70
2023/08/02 12:47:01;;;;;;;2.47;1.93;;;;;;;;;;6248134;28;20220;-70
2023/08/02 12:50:03;;;;;;;3.23;2.07;;;;;;;;;;6248186;28;20269;-70
2023/08/02 12:53:04;;;;;;;2.53;2.00;;;;;;;;;;6255821;28;20201;-70
2023/08/02 12:56:05;;;;;;;3.30;1.70;;;;;;;;;;6251621;28;20187;-70
2023/08/02 12:59:06;;;;;;;2.37;1.83;;;;;;;;;;6252859;28;20245;-70
2023/08/02 13:02:07;;;;;;;3.63;1.97;;;;;;;;;;6257614;28;20197;-70
2023/08/02 13:05:08;;;;;;;2.60;1.90;;;;;;;;;;6256995;28;20189;-70
2023/08/02 13:08:10;;;;;;;1.67;1.57;;;;;;;;;;6249909;28;20248;-71
2023/08/02 13:11:11;;;;;;;1.20;1.10;;;;;;;;;;6266325;28;20201;-71
2023/08/02 13:14:12;;;;;;;2.73;1.40;;;;;;;;;;6242179;28;20198;-70
2023/08/02 13:17:14;;;;;;;1.60;1.50;;;;;;;;;;6254704;28;20232;-70
2023/08/02 13:20:15;;;;;;;2.53;1.40;;;;;;;;;;6246128;28;20226;-70
2023/08/02 13:23:16;;;;;;;2.70;1.40;;;;;;;;;;6242525;28;20213;-70
2023/08/02 13:26:17;;;;;;;3.07;1.40;;;;;;;;;;6250472;28;20196;-70
2023/08/02 13:29:18;;;;;;;2.33;1.20;;;;;;;;;;6256147;28;20193;-70
2023/08/02 13:32:19;;;;;;;1.93;1.23;;;;;;;;;;6239750;28;20364;-70
2023/08/02 13:35:21;;;;;;;2.47;1.30;;;;;;;;;;6254655;28;20228;-70
2023/08/02 13:38:22;;;;;;;1.40;1.30;;;;;;;;;;6247193;28;20271;-70
2023/08/02 13:41:23;;;;;;;1.10;1.00;;;;;;;;;;6249843;28;20193;-70
2023/08/02 13:44:24;;;;;;;1.40;1.03;;;;;;;;;;6236493;28;20202;-68
2023/08/02 13:47:25;;;;;;;1.30;1.20;;;;;;;;;;6272145;28;20194;-70
2023/08/02 13:50:28;;;;;;;2.30;0.90;;;;;;;;;;6266632;28;20201;-70
2023/08/02 13:53:29;;;;;;;2.63;1.30;;;;;;;;;;6248352;28;20198;-70
2023/08/02 13:56:30;;;;;;;1.77;1.27;;;;;;;;;;6278820;28;20213;-69
2023/08/02 13:59:31;;;;;;;3.53;1.23;;;;;;;;;;6256995;28;20274;-69
2023/08/02 14:02:32;;;;;;;1.37;1.07;;;;;;;;;;6242466;28;20185;-69
2023/08/02 14:05:33;;;;;;;3.17;1.50;;;;;;;;;;6242022;28;20190;-69
2023/08/02 14:08:34;;;;;;;1.17;1.07;;;;;;;;;;6251667;28;20280;-69
2023/08/02 14:11:36;;;;;;;3.23;1.40;;;;;;;;;;6265323;28;20197;-69
2023/08/02 14:14:37;;;;;;;4.20;1.50;;;;;;;;;;6240211;28;20206;-69
2023/08/02 14:17:38;;;;;;;1.60;1.07;;;;;;;;;;6277747;28;20239;-69
2023/08/02 14:20:40;;;;;;;1.03;1.00;;;;;;;;;;6237665;28;20193;-70
2023/08/02 14:23:41;;;;;;;2.67;1.30;;;;;;;;;;6270652;28;20193;-70
2023/08/02 14:26:42;;;;;;;1.57;1.20;;;;;;;;;;6277585;28;20195;-70
2023/08/02 14:29:43;;;;;;;1.80;1.27;;;;;;;;;;6267414;28;20200;-70
2023/08/02 14:32:44;;;;;;;1.40;1.30;;;;;;;;;;6244709;28;20209;-70
2023/08/02 14:35:45;;;;;;;2.60;1.20;;;;;;;;;;6245037;28;20182;-70
2023/08/02 14:38:46;;;;;;;2.33;1.70;;;;;;;;;;6255195;28;20251;-70
2023/08/02 14:41:47;;;;;;;3.43;1.60;;;;;;;;;;6251615;28;20194;-70
2023/08/02 14:44:49;;;;;;;2.10;1.23;;;;;;;;;;6253600;28;20231;-70
2023/08/02 14:47:50;;;;;;;1.77;1.57;;;;;;;;;;6254632;28;20194;-70
2023/08/02 14:50:51;;;;;;;1.60;1.50;;;;;;;;;;6248884;28;20186;-70
2023/08/02 14:53:52;;;;;;;2.90;1.30;;;;;;;;;;6248291;28;20190;-70
2023/08/02 14:56:54;;;;;;;1.90;1.50;;;;;;;;;;6249682;28;20212;-70
2023/08/02 14:59:55;;;;;;;2.90;1.50;;;;;;;;;;6253361;28;20200;-70
2023/08/02 15:02:56;;;;;;;1.73;1.33;;;;;;;;;;6245355;28;20228;-70
2023/08/02 15:05:57;;;;;;;1.43;1.17;;;;;;;;;;6263817;28;20289;-70
2023/08/02 15:08:58;;;;;;;1.97;1.30;;;;;;;;;;6249999;28;20194;-69
2023/08/02 15:11:59;;;;;;;2.63;1.30;;;27.90;62.20;;;;;;6231211;28;20277;-69
2023/08/02 15:14:59;;;;;;;1.20;1.10;;;27.90;62.80;;;;;;6253737;28;20194;-69
2023/08/02 15:18:00;;;;;;;1.63;1.40;;;28.00;62.10;;;;;;6249356;28;20217;-69
2023/08/02 15:21:01;;;;;;;1.80;1.17;;;;;;;;;;6274126;28;20190;-69
2023/08/02 15:24:02;;;;;;;3.47;1.30;;;;;;;;;;6253017;28;20226;-69
2023/08/02 15:27:03;;;;;;;4.60;1.83;;;28.00;61.50;;;;;;6250328;28;20328;-69
2023/08/02 15:30:05;;;;;;;3.00;1.27;;;;;;;;;;6266446;28;20260;-69
2023/08/02 15:33:06;;;;;;;2.53;1.57;;;;;;;;;;6244556;28;20187;-69
2023/08/02 15:36:07;;;;;;;1.93;1.43;;;;;;;;;;6265348;28;20202;-69
2023/08/02 15:39:08;;;;;;;2.13;1.67;;;;;;;;;;6247475;28;20226;-69
2023/08/02 15:42:09;;;;;;;4.20;1.80;;;;;;;;;;6244296;28;20221;-69
2023/08/02 15:45:10;;;;;;;3.47;1.77;;;;;;;;;;6246346;28;20289;-69
2023/08/02 15:48:11;;;;;;;3.37;2.00;;;;;;;;;;6253550;28;20216;-69
2023/08/02 15:51:12;;;;;;;3.80;1.70;;;;;;;;;;6250963;28;20269;-69
2023/08/02 15:54:13;;;;;;;3.40;1.80;;;;;;;;;;6271459;28;20189;-69
2023/08/02 15:57:14;;;;;;;2.83;1.90;;;;;;;;;;6246125;28;20214;-69
2023/08/02 16:00:15;;;;;;;2.00;1.77;;;;;;;;;;6245270;28;20194;-69
2023/08/02 16:03:16;;;;;;;2.20;1.70;;;;;;;;;;6243422;28;20224;-69
2023/08/02 16:06:17;;;;;;;3.43;2.00;;;;;;;;;;6247224;28;20222;-69
2023/08/02 16:09:18;;;;;;;3.27;1.97;;;;;;;;;;6246270;28;20200;-69
2023/08/02 16:12:19;;;;;;;3.73;1.80;;;;;;;;;;6243715;28;20186;-69
2023/08/02 16:15:21;;;;;;;4.57;1.70;;;;;;;;;;6245577;28;20178;-69
2023/08/02 16:18:22;;;;;;;4.83;2.27;;;;;;;;;;6247744;28;20218;-69
2023/08/02 16:21:23;;;;;;;4.13;2.20;;;;;;;;;;6253148;28;20182;-69
2023/08/02 16:24:24;;;;;;;2.70;1.87;;;;;;;;;;6252158;28;20239;-69
2023/08/02 16:27:25;;;;;;;3.47;1.97;;;;;;;;;;6249878;28;20231;-69
2023/08/02 16:30:27;;;;;;;2.67;1.70;;;;;;;;;;6247924;28;20230;-69
2023/08/02 16:33:28;;;;;;;4.13;2.17;;;;;;;;;;6242844;28;20195;-69
2023/08/02 16:36:30;;;;;;;2.97;2.03;;;;;;;;;;6244582;28;20214;-69
2023/08/02 16:39:31;;;;;;;2.13;1.90;;;;;;;;;;6263299;28;20194;-69
2023/08/02 16:42:32;;;;;;;3.33;1.97;;;;;;;;;;6247316;28;20187;-69
2023/08/02 16:45:33;;;;;;;2.80;2.00;;;;;;;;;;6260057;28;20189;-69
2023/08/02 16:48:35;;;;;;;5.07;2.07;;;;;;;;;;6251463;28;20290;-69
2023/08/02 16:51:36;;;;;;;3.03;2.10;;;;;;;;;;6266011;28;20289;-69
2023/08/02 16:54:37;;;;;;;6.70;2.23;;;;;;;;;;6280319;28;20189;-69
2023/08/02 16:57:39;;;;;;;2.93;2.20;;;;;;;;;;6250040;28;20206;-69
2023/08/02 17:00:40;;;;;;;3.63;1.80;;;;;;;;;;6270972;28;20236;-69
2023/08/02 17:03:41;;;;;;;5.83;2.27;;;;;;;;;;6247648;28;20193;-69
2023/08/02 17:06:43;;;;;;;3.23;2.00;;;;;;;;;;6250174;28;20247;-69
2023/08/02 17:09:44;;;;;;;2.67;2.27;;;;;;;;;;6268252;28;20192;-69
2023/08/02 17:12:45;;;;;;;3.03;2.50;;;;;;;;;;6257565;28;20247;-69
2023/08/02 17:15:46;;;;;;;6.43;2.63;;;;;;;;;;6269434;28;20198;-69
2023/08/02 17:18:48;;;;;;;3.97;2.77;;;;;;;;;;6245421;28;20206;-69
2023/08/02 17:21:49;;;;;;;5.63;3.00;;;;;;;;;;6252613;28;20182;-69
2023/08/02 17:24:50;;;;;;;4.17;2.90;;;;;;;;;;6249790;28;20187;-69
2023/08/02 17:27:52;;;;;;;5.80;2.87;;;;;;;;;;6246730;28;20194;-69
2023/08/02 17:30:53;;;;;;;3.83;2.70;;;;;;;;;;6246823;28;20233;-69
2023/08/02 17:33:55;;;;;;;4.07;2.57;;;;;;;;;;6246934;28;20197;-69
2023/08/02 17:36:56;;;;;;;7.47;2.90;;;;;;;;;;6257914;28;20304;-69
2023/08/02 17:39:58;;;;;;;5.70;2.87;;;;;;;;;;6249228;28;20401;-69
2023/08/02 17:42:59;;;;;;;3.83;3.20;;;;;;;;;;6257111;28;20182;-69
2023/08/02 17:46:01;;;;;;;5.90;3.23;;;;;;;;;;6253904;28;20207;-69
2023/08/02 17:49:02;;;;;;;6.57;2.90;;;;;;;;;;6252408;28;20196;-69
2023/08/02 17:52:03;;;;;;;4.70;3.00;;;;;;;;;;6270894;28;20259;-69
2023/08/02 17:55:05;;;;;;;4.60;3.27;;;;;;;;;;6252510;28;20201;-69
2023/08/02 17:58:06;;;;;;;3.40;3.10;;;;;;;;;;6266691;28;20305;-69
2023/08/02 18:01:13;;;;;;;3.20;2.80;;;;;;;;;;6249657;28;20201;-68
2023/08/02 18:04:16;;;;;;;6.70;3.47;;;;;;;;;;6250324;28;20214;-69
2023/08/02 18:07:17;;;;;;;4.87;3.60;;;;;;;;;;6255193;28;20240;-69